sensor_id;sensor_type;location;lat;lon;timestamp;P1;durP1;ratioP1;P2;durP2;ratioP2
27847;SDS011;15212;48.830;8.730;2023-02-01T00:01:23;3.30;;;2.08;;
27847;SDS011;15212;48.830;8.730;2023-02-01T00:03:52;3.55;;;2.10;;
27847;SDS011;15212;48.830;8.730;2023-02-01T00:06:20;2.83;;;2.02;;
27847;SDS011;15212;48.830;8.730;2023-02-01T00:08:48;5.65;;;2.12;;
27847;SDS011;15212;48.830;8.730;2023-02-01T00:11:22;3.40;;;2.02;;
27847;SDS011;15212;48.830;8.730;2023-02-01T00:13:51;7.15;;;2.00;;
27847;SDS011;15212;48.830;8.730;2023-02-01T00:16:21;3.85;;;2.00;;
27847;SDS011;15212;48.830;8.730;2023-02-01T00:18:56;2.52;;;1.72;;
27847;SDS011;15212;48.830;8.730;2023-02-01T00:21:29;2.27;;;1.77;;
27847;SDS011;15212;48.830;8.730;2023-02-01T00:23:58;3.10;;;1.60;;
27847;SDS011;15212;48.830;8.730;2023-02-01T00:26:30;4.00;;;1.50;;
27847;SDS011;15212;48.830;8.730;2023-02-01T00:29:15;5.33;;;1.70;;
27847;SDS011;15212;48.830;8.730;2023-02-01T00:31:46;3.70;;;1.97;;
27847;SDS011;15212;48.830;8.730;2023-02-01T00:34:17;3.00;;;1.90;;
27847;SDS011;15212;48.830;8.730;2023-02-01T00:36:47;3.12;;;1.65;;
27847;SDS011;15212;48.830;8.730;2023-02-01T00:39:15;2.27;;;1.65;;
27847;SDS011;15212;48.830;8.730;2023-02-01T00:41:44;2.50;;;1.50;;
27847;SDS011;15212;48.830;8.730;2023-02-01T00:44:12;2.40;;;1.60;;
27847;SDS011;15212;48.830;8.730;2023-02-01T00:46:41;1.87;;;1.30;;
27847;SDS011;15212;48.830;8.730;2023-02-01T00:49:09;2.72;;;1.75;;
27847;SDS011;15212;48.830;8.730;2023-02-01T00:51:37;2.17;;;1.55;;
27847;SDS011;15212;48.830;8.730;2023-02-01T00:54:06;3.00;;;1.82;;
27847;SDS011;15212;48.830;8.730;2023-02-01T00:56:34;3.47;;;1.60;;
27847;SDS011;15212;48.830;8.730;2023-02-01T00:59:02;3.98;;;1.50;;
27847;SDS011;15212;48.830;8.730;2023-02-01T01:01:31;3.95;;;1.62;;
27847;SDS011;15212;48.830;8.730;2023-02-01T01:03:59;6.62;;;1.87;;
27847;SDS011;15212;48.830;8.730;2023-02-01T01:06:29;2.10;;;1.60;;
27847;SDS011;15212;48.830;8.730;2023-02-01T01:09:00;4.28;;;2.00;;
27847;SDS011;15212;48.830;8.730;2023-02-01T01:11:32;2.50;;;1.90;;
27847;SDS011;15212;48.830;8.730;2023-02-01T01:14:04;4.58;;;1.82;;
27847;SDS011;15212;48.830;8.730;2023-02-01T01:16:34;2.62;;;1.65;;
27847;SDS011;15212;48.830;8.730;2023-02-01T01:19:02;3.75;;;1.67;;
27847;SDS011;15212;48.830;8.730;2023-02-01T01:21:31;3.47;;;1.70;;
27847;SDS011;15212;48.830;8.730;2023-02-01T01:23:59;2.35;;;1.60;;
27847;SDS011;15212;48.830;8.730;2023-02-01T01:26:28;2.80;;;1.52;;
27847;SDS011;15212;48.830;8.730;2023-02-01T01:28:58;3.50;;;1.77;;
27847;SDS011;15212;48.830;8.730;2023-02-01T01:31:27;2.72;;;1.72;;
27847;SDS011;15212;48.830;8.730;2023-02-01T01:33:56;5.72;;;1.90;;
27847;SDS011;15212;48.830;8.730;2023-02-01T01:36:27;4.37;;;1.60;;
27847;SDS011;15212;48.830;8.730;2023-02-01T01:38:56;2.65;;;1.70;;
27847;SDS011;15212;48.830;8.730;2023-02-01T01:41:26;2.58;;;1.90;;
27847;SDS011;15212;48.830;8.730;2023-02-01T01:46:35;4.90;;;1.52;;
27847;SDS011;15212;48.830;8.730;2023-02-01T01:49:11;1.92;;;1.50;;
27847;SDS011;15212;48.830;8.730;2023-02-01T01:51:44;4.05;;;1.57;;
27847;SDS011;15212;48.830;8.730;2023-02-01T01:54:34;2.58;;;1.50;;
27847;SDS011;15212;48.830;8.730;2023-02-01T01:57:10;2.87;;;1.70;;
27847;SDS011;15212;48.830;8.730;2023-02-01T01:59:55;3.00;;;1.30;;
27847;SDS011;15212;48.830;8.730;2023-02-01T02:02:33;2.55;;;1.40;;
27847;SDS011;15212;48.830;8.730;2023-02-01T02:05:03;2.22;;;1.40;;
27847;SDS011;15212;48.830;8.730;2023-02-01T02:07:34;4.10;;;1.62;;
27847;SDS011;15212;48.830;8.730;2023-02-01T02:10:07;1.62;;;1.20;;
27847;SDS011;15212;48.830;8.730;2023-02-01T02:12:38;3.75;;;1.67;;
27847;SDS011;15212;48.830;8.730;2023-02-01T02:15:09;2.40;;;1.55;;
27847;SDS011;15212;48.830;8.730;2023-02-01T02:20:45;2.00;;;1.42;;
27847;SDS011;15212;48.830;8.730;2023-02-01T02:27:02;2.60;;;1.57;;
27847;SDS011;15212;48.830;8.730;2023-02-01T02:38:27;2.27;;;1.20;;
27847;SDS011;15212;48.830;8.730;2023-02-01T02:44:15;4.47;;;1.50;;
27847;SDS011;15212;48.830;8.730;2023-02-01T02:47:27;1.77;;;1.20;;
27847;SDS011;15212;48.830;8.730;2023-02-01T02:50:09;3.58;;;1.42;;
27847;SDS011;15212;48.830;8.730;2023-02-01T02:53:18;3.00;;;1.30;;
27847;SDS011;15212;48.830;8.730;2023-02-01T02:56:11;2.00;;;1.20;;
27847;SDS011;15212;48.830;8.730;2023-02-01T02:58:58;4.97;;;1.37;;
27847;SDS011;15212;48.830;8.730;2023-02-01T03:01:46;3.05;;;1.57;;
27847;SDS011;15212;48.830;8.730;2023-02-01T03:04:34;3.22;;;1.37;;
27847;SDS011;15212;48.830;8.730;2023-02-01T03:07:13;2.15;;;1.60;;
27847;SDS011;15212;48.830;8.730;2023-02-01T03:10:05;3.12;;;1.30;;
27847;SDS011;15212;48.830;8.730;2023-02-01T03:12:52;5.28;;;1.67;;
27847;SDS011;15212;48.830;8.730;2023-02-01T03:15:32;2.52;;;1.50;;
27847;SDS011;15212;48.830;8.730;2023-02-01T03:18:19;5.05;;;1.40;;
27847;SDS011;15212;48.830;8.730;2023-02-01T03:20:57;1.87;;;1.25;;
27847;SDS011;15212;48.830;8.730;2023-02-01T03:23:31;2.20;;;1.30;;
27847;SDS011;15212;48.830;8.730;2023-02-01T03:26:01;1.57;;;1.05;;
27847;SDS011;15212;48.830;8.730;2023-02-01T03:28:32;1.70;;;1.10;;
27847;SDS011;15212;48.830;8.730;2023-02-01T03:31:02;2.87;;;1.60;;
27847;SDS011;15212;48.830;8.730;2023-02-01T03:33:30;2.47;;;1.70;;
27847;SDS011;15212;48.830;8.730;2023-02-01T03:36:02;2.98;;;1.32;;
27847;SDS011;15212;48.830;8.730;2023-02-01T03:38:57;2.62;;;1.37;;
27847;SDS011;15212;48.830;8.730;2023-02-01T03:41:47;2.35;;;1.42;;
27847;SDS011;15212;48.830;8.730;2023-02-01T03:44:26;5.12;;;1.60;;
27847;SDS011;15212;48.830;8.730;2023-02-01T03:47:19;3.40;;;1.42;;
27847;SDS011;15212;48.830;8.730;2023-02-01T03:49:50;1.87;;;1.25;;
27847;SDS011;15212;48.830;8.730;2023-02-01T03:52:26;4.78;;;1.72;;
27847;SDS011;15212;48.830;8.730;2023-02-01T03:54:58;1.50;;;1.27;;
27847;SDS011;15212;48.830;8.730;2023-02-01T03:57:28;4.15;;;1.50;;
27847;SDS011;15212;48.830;8.730;2023-02-01T04:00:09;2.92;;;1.70;;
27847;SDS011;15212;48.830;8.730;2023-02-01T04:02:38;3.65;;;1.60;;
27847;SDS011;15212;48.830;8.730;2023-02-01T04:05:06;2.02;;;1.47;;
27847;SDS011;15212;48.830;8.730;2023-02-01T04:07:35;3.75;;;1.75;;
27847;SDS011;15212;48.830;8.730;2023-02-01T04:10:04;4.60;;;1.85;;
27847;SDS011;15212;48.830;8.730;2023-02-01T04:12:33;4.30;;;1.77;;
27847;SDS011;15212;48.830;8.730;2023-02-01T04:15:01;4.40;;;1.37;;
27847;SDS011;15212;48.830;8.730;2023-02-01T04:17:30;4.50;;;1.47;;
27847;SDS011;15212;48.830;8.730;2023-02-01T04:19:58;4.47;;;1.70;;
27847;SDS011;15212;48.830;8.730;2023-02-01T04:22:26;5.75;;;1.30;;
27847;SDS011;15212;48.830;8.730;2023-02-01T04:24:55;3.92;;;1.22;;
27847;SDS011;15212;48.830;8.730;2023-02-01T04:27:23;2.17;;;1.17;;
27847;SDS011;15212;48.830;8.730;2023-02-01T04:29:52;2.22;;;1.50;;
27847;SDS011;15212;48.830;8.730;2023-02-01T04:32:21;2.80;;;1.60;;
27847;SDS011;15212;48.830;8.730;2023-02-01T04:34:49;3.47;;;1.77;;
27847;SDS011;15212;48.830;8.730;2023-02-01T04:37:18;3.62;;;1.80;;
27847;SDS011;15212;48.830;8.730;2023-02-01T04:39:46;2.58;;;1.70;;
27847;SDS011;15212;48.830;8.730;2023-02-01T04:42:14;7.22;;;1.52;;
27847;SDS011;15212;48.830;8.730;2023-02-01T04:44:43;2.52;;;1.57;;
27847;SDS011;15212;48.830;8.730;2023-02-01T04:47:11;1.67;;;1.40;;
27847;SDS011;15212;48.830;8.730;2023-02-01T04:49:41;2.95;;;1.85;;
27847;SDS011;15212;48.830;8.730;2023-02-01T04:52:10;2.47;;;1.62;;
27847;SDS011;15212;48.830;8.730;2023-02-01T04:54:38;3.47;;;1.72;;
27847;SDS011;15212;48.830;8.730;2023-02-01T04:57:06;4.00;;;1.55;;
27847;SDS011;15212;48.830;8.730;2023-02-01T04:59:35;3.27;;;1.77;;
27847;SDS011;15212;48.830;8.730;2023-02-01T05:02:03;4.17;;;2.02;;
27847;SDS011;15212;48.830;8.730;2023-02-01T05:04:32;3.65;;;1.92;;
27847;SDS011;15212;48.830;8.730;2023-02-01T05:07:00;4.55;;;2.65;;
27847;SDS011;15212;48.830;8.730;2023-02-01T05:09:28;2.95;;;1.50;;
27847;SDS011;15212;48.830;8.730;2023-02-01T05:11:57;5.42;;;1.87;;
27847;SDS011;15212;48.830;8.730;2023-02-01T05:14:42;6.50;;;2.00;;
27847;SDS011;15212;48.830;8.730;2023-02-01T05:17:11;6.12;;;2.17;;
27847;SDS011;15212;48.830;8.730;2023-02-01T05:19:39;3.92;;;1.82;;
27847;SDS011;15212;48.830;8.730;2023-02-01T05:22:07;2.02;;;1.50;;
27847;SDS011;15212;48.830;8.730;2023-02-01T05:24:36;4.30;;;1.82;;
27847;SDS011;15212;48.830;8.730;2023-02-01T05:27:04;2.83;;;1.67;;
27847;SDS011;15212;48.830;8.730;2023-02-01T05:29:33;7.00;;;2.20;;
27847;SDS011;15212;48.830;8.730;2023-02-01T05:32:01;2.17;;;1.70;;
27847;SDS011;15212;48.830;8.730;2023-02-01T05:34:29;3.65;;;1.67;;
27847;SDS011;15212;48.830;8.730;2023-02-01T05:36:58;4.05;;;2.30;;
27847;SDS011;15212;48.830;8.730;2023-02-01T05:39:26;4.35;;;1.90;;
27847;SDS011;15212;48.830;8.730;2023-02-01T05:41:54;4.33;;;2.02;;
27847;SDS011;15212;48.830;8.730;2023-02-01T05:44:23;5.12;;;2.02;;
27847;SDS011;15212;48.830;8.730;2023-02-01T05:46:51;3.95;;;2.00;;
27847;SDS011;15212;48.830;8.730;2023-02-01T05:49:20;5.70;;;2.00;;
27847;SDS011;15212;48.830;8.730;2023-02-01T05:51:48;7.42;;;2.17;;
27847;SDS011;15212;48.830;8.730;2023-02-01T05:54:16;5.42;;;2.65;;
27847;SDS011;15212;48.830;8.730;2023-02-01T05:56:45;8.00;;;2.87;;
27847;SDS011;15212;48.830;8.730;2023-02-01T05:59:13;6.10;;;3.30;;
27847;SDS011;15212;48.830;8.730;2023-02-01T06:01:41;6.05;;;3.10;;
27847;SDS011;15212;48.830;8.730;2023-02-01T06:04:10;9.38;;;4.47;;
27847;SDS011;15212;48.830;8.730;2023-02-01T06:06:38;6.62;;;3.60;;
27847;SDS011;15212;48.830;8.730;2023-02-01T06:09:07;12.70;;;4.55;;
27847;SDS011;15212;48.830;8.730;2023-02-01T06:11:35;8.18;;;3.95;;
27847;SDS011;15212;48.830;8.730;2023-02-01T06:14:04;7.50;;;4.00;;
27847;SDS011;15212;48.830;8.730;2023-02-01T06:16:33;15.40;;;5.10;;
27847;SDS011;15212;48.830;8.730;2023-02-01T06:19:02;10.53;;;4.12;;
27847;SDS011;15212;48.830;8.730;2023-02-01T06:21:30;11.57;;;4.40;;
27847;SDS011;15212;48.830;8.730;2023-02-01T06:23:59;12.15;;;4.15;;
27847;SDS011;15212;48.830;8.730;2023-02-01T06:26:27;10.45;;;3.67;;
27847;SDS011;15212;48.830;8.730;2023-02-01T06:28:56;11.40;;;4.10;;
27847;SDS011;15212;48.830;8.730;2023-02-01T06:31:24;10.20;;;4.10;;
27847;SDS011;15212;48.830;8.730;2023-02-01T06:33:53;11.60;;;4.45;;
27847;SDS011;15212;48.830;8.730;2023-02-01T06:36:21;12.05;;;4.03;;
27847;SDS011;15212;48.830;8.730;2023-02-01T06:38:50;9.93;;;3.67;;
27847;SDS011;15212;48.830;8.730;2023-02-01T06:41:18;14.70;;;4.30;;
27847;SDS011;15212;48.830;8.730;2023-02-01T06:43:46;11.43;;;3.50;;
27847;SDS011;15212;48.830;8.730;2023-02-01T06:46:15;12.13;;;3.92;;
27847;SDS011;15212;48.830;8.730;2023-02-01T06:48:43;8.13;;;3.22;;
27847;SDS011;15212;48.830;8.730;2023-02-01T06:51:19;9.80;;;3.52;;
27847;SDS011;15212;48.830;8.730;2023-02-01T06:53:49;14.68;;;4.03;;
27847;SDS011;15212;48.830;8.730;2023-02-01T06:56:18;11.43;;;4.12;;
27847;SDS011;15212;48.830;8.730;2023-02-01T06:58:47;10.08;;;3.72;;
27847;SDS011;15212;48.830;8.730;2023-02-01T07:01:16;6.80;;;3.40;;
27847;SDS011;15212;48.830;8.730;2023-02-01T07:03:53;8.13;;;3.45;;
27847;SDS011;15212;48.830;8.730;2023-02-01T07:06:18;12.20;;;3.98;;
27847;SDS011;15212;48.830;8.730;2023-02-01T07:08:46;17.55;;;4.58;;
27847;SDS011;15212;48.830;8.730;2023-02-01T07:11:15;10.65;;;3.50;;
27847;SDS011;15212;48.830;8.730;2023-02-01T07:13:45;11.12;;;3.95;;
27847;SDS011;15212;48.830;8.730;2023-02-01T07:16:18;11.57;;;4.80;;
27847;SDS011;15212;48.830;8.730;2023-02-01T07:18:45;11.48;;;4.03;;
27847;SDS011;15212;48.830;8.730;2023-02-01T07:21:16;11.93;;;4.67;;
27847;SDS011;15212;48.830;8.730;2023-02-01T07:23:45;11.35;;;4.22;;
27847;SDS011;15212;48.830;8.730;2023-02-01T07:26:14;8.40;;;3.77;;
27847;SDS011;15212;48.830;8.730;2023-02-01T07:28:42;11.80;;;4.33;;
27847;SDS011;15212;48.830;8.730;2023-02-01T07:31:13;7.90;;;3.67;;
27847;SDS011;15212;48.830;8.730;2023-02-01T07:33:46;13.85;;;4.17;;
27847;SDS011;15212;48.830;8.730;2023-02-01T07:36:17;13.83;;;4.30;;
27847;SDS011;15212;48.830;8.730;2023-02-01T07:38:46;26.02;;;4.58;;
27847;SDS011;15212;48.830;8.730;2023-02-01T07:41:14;13.80;;;4.08;;
27847;SDS011;15212;48.830;8.730;2023-02-01T07:43:43;7.35;;;3.37;;
27847;SDS011;15212;48.830;8.730;2023-02-01T07:46:12;17.82;;;4.17;;
27847;SDS011;15212;48.830;8.730;2023-02-01T07:48:41;11.90;;;4.10;;
27847;SDS011;15212;48.830;8.730;2023-02-01T07:51:10;13.62;;;4.30;;
27847;SDS011;15212;48.830;8.730;2023-02-01T07:53:40;13.43;;;4.15;;
27847;SDS011;15212;48.830;8.730;2023-02-01T07:56:11;11.50;;;3.45;;
27847;SDS011;15212;48.830;8.730;2023-02-01T07:58:42;9.93;;;3.58;;
27847;SDS011;15212;48.830;8.730;2023-02-01T08:01:15;14.03;;;3.62;;
27847;SDS011;15212;48.830;8.730;2023-02-01T08:03:51;14.60;;;3.77;;
27847;SDS011;15212;48.830;8.730;2023-02-01T08:06:21;14.28;;;3.72;;
27847;SDS011;15212;48.830;8.730;2023-02-01T08:08:51;8.38;;;3.10;;
27847;SDS011;15212;48.830;8.730;2023-02-01T08:11:21;10.70;;;3.22;;
27847;SDS011;15212;48.830;8.730;2023-02-01T08:13:51;8.30;;;3.47;;
27847;SDS011;15212;48.830;8.730;2023-02-01T08:16:20;10.45;;;3.52;;
27847;SDS011;15212;48.830;8.730;2023-02-01T08:18:50;10.23;;;3.17;;
27847;SDS011;15212;48.830;8.730;2023-02-01T08:21:22;13.00;;;3.62;;
27847;SDS011;15212;48.830;8.730;2023-02-01T08:23:54;10.30;;;3.47;;
27847;SDS011;15212;48.830;8.730;2023-02-01T08:26:23;19.00;;;3.92;;
27847;SDS011;15212;48.830;8.730;2023-02-01T08:28:54;9.63;;;2.98;;
27847;SDS011;15212;48.830;8.730;2023-02-01T08:31:26;12.33;;;2.80;;
27847;SDS011;15212;48.830;8.730;2023-02-01T08:33:57;6.85;;;3.12;;
27847;SDS011;15212;48.830;8.730;2023-02-01T08:36:30;5.85;;;2.95;;
27847;SDS011;15212;48.830;8.730;2023-02-01T08:38:59;8.33;;;2.70;;
27847;SDS011;15212;48.830;8.730;2023-02-01T08:41:29;13.85;;;2.85;;
27847;SDS011;15212;48.830;8.730;2023-02-01T08:43:58;10.18;;;3.08;;
27847;SDS011;15212;48.830;8.730;2023-02-01T08:46:26;12.13;;;3.17;;
27847;SDS011;15212;48.830;8.730;2023-02-01T08:48:55;3.95;;;2.30;;
27847;SDS011;15212;48.830;8.730;2023-02-01T08:51:23;8.03;;;2.60;;
27847;SDS011;15212;48.830;8.730;2023-02-01T08:53:52;13.08;;;3.10;;
27847;SDS011;15212;48.830;8.730;2023-02-01T08:56:20;11.85;;;2.90;;
27847;SDS011;15212;48.830;8.730;2023-02-01T08:58:49;8.80;;;3.20;;
27847;SDS011;15212;48.830;8.730;2023-02-01T09:01:17;13.20;;;2.98;;
27847;SDS011;15212;48.830;8.730;2023-02-01T09:03:45;9.40;;;3.42;;
27847;SDS011;15212;48.830;8.730;2023-02-01T09:06:14;16.35;;;3.40;;
27847;SDS011;15212;48.830;8.730;2023-02-01T09:08:43;11.88;;;3.40;;
27847;SDS011;15212;48.830;8.730;2023-02-01T09:11:17;10.38;;;2.92;;
27847;SDS011;15212;48.830;8.730;2023-02-01T09:13:44;19.37;;;3.33;;
27847;SDS011;15212;48.830;8.730;2023-02-01T09:16:14;20.45;;;3.40;;
27847;SDS011;15212;48.830;8.730;2023-02-01T09:18:43;11.43;;;2.80;;
27847;SDS011;15212;48.830;8.730;2023-02-01T09:21:11;17.23;;;2.92;;
27847;SDS011;15212;48.830;8.730;2023-02-01T09:23:39;13.70;;;2.70;;
27847;SDS011;15212;48.830;8.730;2023-02-01T09:26:08;15.68;;;3.10;;
27847;SDS011;15212;48.830;8.730;2023-02-01T09:28:37;17.80;;;2.90;;
27847;SDS011;15212;48.830;8.730;2023-02-01T09:31:05;13.00;;;2.72;;
27847;SDS011;15212;48.830;8.730;2023-02-01T09:33:34;22.98;;;2.67;;
27847;SDS011;15212;48.830;8.730;2023-02-01T09:36:03;16.48;;;2.60;;
27847;SDS011;15212;48.830;8.730;2023-02-01T09:38:32;14.90;;;2.87;;
27847;SDS011;15212;48.830;8.730;2023-02-01T09:41:01;13.93;;;2.42;;
27847;SDS011;15212;48.830;8.730;2023-02-01T09:43:41;11.28;;;2.55;;
27847;SDS011;15212;48.830;8.730;2023-02-01T09:46:21;15.05;;;2.50;;
27847;SDS011;15212;48.830;8.730;2023-02-01T09:48:54;9.93;;;2.52;;
27847;SDS011;15212;48.830;8.730;2023-02-01T09:51:35;18.17;;;3.40;;
27847;SDS011;15212;48.830;8.730;2023-02-01T09:54:10;15.23;;;2.92;;
27847;SDS011;15212;48.830;8.730;2023-02-01T09:56:59;8.78;;;2.35;;
27847;SDS011;15212;48.830;8.730;2023-02-01T10:00:03;15.50;;;3.00;;
27847;SDS011;15212;48.830;8.730;2023-02-01T10:02:36;16.48;;;2.95;;
27847;SDS011;15212;48.830;8.730;2023-02-01T10:05:10;13.13;;;3.05;;
27847;SDS011;15212;48.830;8.730;2023-02-01T10:08:00;12.58;;;2.52;;
27847;SDS011;15212;48.830;8.730;2023-02-01T10:10:39;12.95;;;2.42;;
27847;SDS011;15212;48.830;8.730;2023-02-01T10:13:21;12.40;;;2.80;;
27847;SDS011;15212;48.830;8.730;2023-02-01T10:19:13;17.55;;;2.33;;
27847;SDS011;15212;48.830;8.730;2023-02-01T10:21:49;8.50;;;2.00;;
27847;SDS011;15212;48.830;8.730;2023-02-01T10:24:34;17.73;;;3.02;;
27847;SDS011;15212;48.830;8.730;2023-02-01T10:27:20;16.23;;;2.35;;
27847;SDS011;15212;48.830;8.730;2023-02-01T10:29:53;12.58;;;2.60;;
27847;SDS011;15212;48.830;8.730;2023-02-01T10:32:29;12.65;;;2.80;;
27847;SDS011;15212;48.830;8.730;2023-02-01T10:35:04;16.85;;;2.72;;
27847;SDS011;15212;48.830;8.730;2023-02-01T10:37:40;12.23;;;2.33;;
27847;SDS011;15212;48.830;8.730;2023-02-01T10:40:15;9.13;;;2.75;;
27847;SDS011;15212;48.830;8.730;2023-02-01T10:42:56;18.75;;;3.15;;
27847;SDS011;15212;48.830;8.730;2023-02-01T10:45:26;9.53;;;2.67;;
27847;SDS011;15212;48.830;8.730;2023-02-01T10:47:57;7.65;;;2.17;;
27847;SDS011;15212;48.830;8.730;2023-02-01T10:50:33;16.85;;;2.75;;
27847;SDS011;15212;48.830;8.730;2023-02-01T10:53:18;9.10;;;2.10;;
27847;SDS011;15212;48.830;8.730;2023-02-01T10:56:04;10.72;;;2.40;;
27847;SDS011;15212;48.830;8.730;2023-02-01T10:58:33;10.38;;;2.20;;
27847;SDS011;15212;48.830;8.730;2023-02-01T11:01:06;13.68;;;2.52;;
27847;SDS011;15212;48.830;8.730;2023-02-01T11:03:42;7.40;;;2.42;;
27847;SDS011;15212;48.830;8.730;2023-02-01T11:06:24;19.77;;;2.47;;
27847;SDS011;15212;48.830;8.730;2023-02-01T11:09:24;8.35;;;2.40;;
27847;SDS011;15212;48.830;8.730;2023-02-01T11:16:55;12.80;;;2.50;;
27847;SDS011;15212;48.830;8.730;2023-02-01T11:19:27;9.53;;;2.37;;
27847;SDS011;15212;48.830;8.730;2023-02-01T11:21:57;8.55;;;1.90;;
27847;SDS011;15212;48.830;8.730;2023-02-01T11:24:29;7.30;;;2.15;;
27847;SDS011;15212;48.830;8.730;2023-02-01T11:27:02;10.55;;;2.40;;
27847;SDS011;15212;48.830;8.730;2023-02-01T11:29:40;5.90;;;1.85;;
27847;SDS011;15212;48.830;8.730;2023-02-01T11:32:12;8.90;;;1.72;;
27847;SDS011;15212;48.830;8.730;2023-02-01T11:34:44;11.12;;;2.10;;
27847;SDS011;15212;48.830;8.730;2023-02-01T11:37:24;8.00;;;1.92;;
27847;SDS011;15212;48.830;8.730;2023-02-01T11:43:07;10.45;;;2.72;;
27847;SDS011;15212;48.830;8.730;2023-02-01T11:45:30;8.48;;;2.00;;
27847;SDS011;15212;48.830;8.730;2023-02-01T11:48:02;26.75;;;2.98;;
27847;SDS011;15212;48.830;8.730;2023-02-01T11:50:39;4.35;;;1.47;;
27847;SDS011;15212;48.830;8.730;2023-02-01T11:53:18;14.98;;;3.05;;
27847;SDS011;15212;48.830;8.730;2023-02-01T11:56:08;9.28;;;2.15;;
27847;SDS011;15212;48.830;8.730;2023-02-01T11:58:51;7.58;;;2.30;;
27847;SDS011;15212;48.830;8.730;2023-02-01T12:04:35;9.70;;;2.10;;
27847;SDS011;15212;48.830;8.730;2023-02-01T12:06:59;14.35;;;2.42;;
27847;SDS011;15212;48.830;8.730;2023-02-01T12:12:17;9.70;;;2.45;;
27847;SDS011;15212;48.830;8.730;2023-02-01T12:23:33;16.12;;;2.75;;
27847;SDS011;15212;48.830;8.730;2023-02-01T12:29:56;13.03;;;2.40;;
27847;SDS011;15212;48.830;8.730;2023-02-01T12:32:53;12.18;;;2.10;;
27847;SDS011;15212;48.830;8.730;2023-02-01T12:35:57;14.43;;;2.40;;
27847;SDS011;15212;48.830;8.730;2023-02-01T12:47:35;14.00;;;2.37;;
27847;SDS011;15212;48.830;8.730;2023-02-01T12:50:20;13.70;;;2.02;;
27847;SDS011;15212;48.830;8.730;2023-02-01T12:53:06;11.15;;;2.00;;
27847;SDS011;15212;48.830;8.730;2023-02-01T12:55:46;11.20;;;2.62;;
27847;SDS011;15212;48.830;8.730;2023-02-01T12:58:34;13.78;;;2.40;;
27847;SDS011;15212;48.830;8.730;2023-02-01T13:01:21;6.08;;;1.87;;
27847;SDS011;15212;48.830;8.730;2023-02-01T13:04:12;8.43;;;2.00;;
27847;SDS011;15212;48.830;8.730;2023-02-01T13:07:10;8.45;;;1.80;;
27847;SDS011;15212;48.830;8.730;2023-02-01T13:12:57;12.73;;;2.47;;
27847;SDS011;15212;48.830;8.730;2023-02-01T13:15:30;11.80;;;2.30;;
27847;SDS011;15212;48.830;8.730;2023-02-01T13:18:05;8.65;;;2.22;;
27847;SDS011;15212;48.830;8.730;2023-02-01T13:20:55;4.22;;;1.70;;
27847;SDS011;15212;48.830;8.730;2023-02-01T13:23:29;15.48;;;2.67;;
27847;SDS011;15212;48.830;8.730;2023-02-01T13:26:00;16.65;;;2.22;;
27847;SDS011;15212;48.830;8.730;2023-02-01T13:28:48;9.03;;;2.10;;
27847;SDS011;15212;48.830;8.730;2023-02-01T13:31:32;13.98;;;3.30;;
27847;SDS011;15212;48.830;8.730;2023-02-01T13:42:55;13.30;;;2.33;;
27847;SDS011;15212;48.830;8.730;2023-02-01T13:45:27;15.90;;;3.12;;
27847;SDS011;15212;48.830;8.730;2023-02-01T13:48:00;16.57;;;2.60;;
27847;SDS011;15212;48.830;8.730;2023-02-01T13:50:33;11.43;;;2.35;;
27847;SDS011;15212;48.830;8.730;2023-02-01T13:55:46;13.40;;;2.52;;
27847;SDS011;15212;48.830;8.730;2023-02-01T13:58:31;12.23;;;2.35;;
27847;SDS011;15212;48.830;8.730;2023-02-01T14:03:54;11.00;;;2.57;;
27847;SDS011;15212;48.830;8.730;2023-02-01T14:15:22;21.45;;;3.12;;
27847;SDS011;15212;48.830;8.730;2023-02-01T14:17:53;13.80;;;2.37;;
27847;SDS011;15212;48.830;8.730;2023-02-01T14:20:41;12.23;;;2.77;;
27847;SDS011;15212;48.830;8.730;2023-02-01T14:23:14;16.35;;;2.67;;
27847;SDS011;15212;48.830;8.730;2023-02-01T14:26:01;7.72;;;2.02;;
27847;SDS011;15212;48.830;8.730;2023-02-01T14:28:27;12.13;;;2.70;;
27847;SDS011;15212;48.830;8.730;2023-02-01T14:30:54;18.42;;;3.22;;
27847;SDS011;15212;48.830;8.730;2023-02-01T14:33:26;9.50;;;2.37;;
27847;SDS011;15212;48.830;8.730;2023-02-01T14:35:57;13.70;;;2.52;;
27847;SDS011;15212;48.830;8.730;2023-02-01T14:38:37;18.57;;;2.65;;
27847;SDS011;15212;48.830;8.730;2023-02-01T14:41:21;12.93;;;2.37;;
27847;SDS011;15212;48.830;8.730;2023-02-01T14:44:12;9.00;;;2.45;;
27847;SDS011;15212;48.830;8.730;2023-02-01T14:49:37;11.53;;;2.22;;
27847;SDS011;15212;48.830;8.730;2023-02-01T14:52:11;17.17;;;2.90;;
27847;SDS011;15212;48.830;8.730;2023-02-01T14:54:44;9.58;;;2.10;;
27847;SDS011;15212;48.830;8.730;2023-02-01T14:57:19;12.88;;;2.42;;
27847;SDS011;15212;48.830;8.730;2023-02-01T14:59:53;17.05;;;2.00;;
27847;SDS011;15212;48.830;8.730;2023-02-01T15:02:49;13.62;;;2.80;;
27847;SDS011;15212;48.830;8.730;2023-02-01T15:05:29;13.65;;;2.20;;
27847;SDS011;15212;48.830;8.730;2023-02-01T15:08:28;13.15;;;2.80;;
27847;SDS011;15212;48.830;8.730;2023-02-01T15:10:55;10.15;;;2.72;;
27847;SDS011;15212;48.830;8.730;2023-02-01T15:13:30;5.97;;;2.33;;
27847;SDS011;15212;48.830;8.730;2023-02-01T15:15:59;16.27;;;1.85;;
27847;SDS011;15212;48.830;8.730;2023-02-01T15:18:39;13.20;;;2.27;;
27847;SDS011;15212;48.830;8.730;2023-02-01T15:21:18;16.90;;;2.67;;
27847;SDS011;15212;48.830;8.730;2023-02-01T15:23:48;8.80;;;2.15;;
27847;SDS011;15212;48.830;8.730;2023-02-01T15:26:30;17.50;;;2.75;;
27847;SDS011;15212;48.830;8.730;2023-02-01T15:28:59;12.13;;;2.15;;
27847;SDS011;15212;48.830;8.730;2023-02-01T15:31:35;12.90;;;2.27;;
27847;SDS011;15212;48.830;8.730;2023-02-01T15:34:07;13.10;;;2.50;;
27847;SDS011;15212;48.830;8.730;2023-02-01T15:36:36;10.68;;;1.85;;
27847;SDS011;15212;48.830;8.730;2023-02-01T15:41:53;11.12;;;2.52;;
27847;SDS011;15212;48.830;8.730;2023-02-01T15:47:08;9.88;;;1.98;;
27847;SDS011;15212;48.830;8.730;2023-02-01T15:49:52;10.30;;;1.82;;
27847;SDS011;15212;48.830;8.730;2023-02-01T15:52:36;15.13;;;2.37;;
27847;SDS011;15212;48.830;8.730;2023-02-01T15:55:21;11.73;;;1.92;;
27847;SDS011;15212;48.830;8.730;2023-02-01T15:57:53;8.15;;;1.85;;
27847;SDS011;15212;48.830;8.730;2023-02-01T16:00:22;8.23;;;1.80;;
27847;SDS011;15212;48.830;8.730;2023-02-01T16:02:57;7.83;;;2.20;;
27847;SDS011;15212;48.830;8.730;2023-02-01T16:05:33;16.05;;;2.60;;
27847;SDS011;15212;48.830;8.730;2023-02-01T16:08:06;13.08;;;2.55;;
27847;SDS011;15212;48.830;8.730;2023-02-01T16:10:52;6.72;;;2.00;;
27847;SDS011;15212;48.830;8.730;2023-02-01T16:13:29;8.20;;;1.90;;
27847;SDS011;15212;48.830;8.730;2023-02-01T16:15:58;13.50;;;2.60;;
27847;SDS011;15212;48.830;8.730;2023-02-01T16:18:26;9.93;;;2.92;;
27847;SDS011;15212;48.830;8.730;2023-02-01T16:20:55;18.85;;;2.35;;
27847;SDS011;15212;48.830;8.730;2023-02-01T16:23:23;10.38;;;2.58;;
27847;SDS011;15212;48.830;8.730;2023-02-01T16:25:51;9.15;;;2.60;;
27847;SDS011;15212;48.830;8.730;2023-02-01T16:28:20;7.53;;;2.00;;
27847;SDS011;15212;48.830;8.730;2023-02-01T16:30:48;13.58;;;2.47;;
27847;SDS011;15212;48.830;8.730;2023-02-01T16:33:18;10.68;;;2.42;;
27847;SDS011;15212;48.830;8.730;2023-02-01T16:35:50;15.38;;;2.40;;
27847;SDS011;15212;48.830;8.730;2023-02-01T16:38:21;7.80;;;1.98;;
27847;SDS011;15212;48.830;8.730;2023-02-01T16:40:50;11.97;;;2.40;;
27847;SDS011;15212;48.830;8.730;2023-02-01T16:43:20;17.10;;;2.62;;
27847;SDS011;15212;48.830;8.730;2023-02-01T16:45:51;9.45;;;2.20;;
27847;SDS011;15212;48.830;8.730;2023-02-01T16:48:25;11.10;;;2.25;;
27847;SDS011;15212;48.830;8.730;2023-02-01T16:51:03;12.30;;;2.25;;
27847;SDS011;15212;48.830;8.730;2023-02-01T16:53:38;21.00;;;2.70;;